Time;durP1;ratioP1;P1;durP2;ratioP2;P2;SDS_P1;SDS_P2;PMS_P1;PMS_P2;Temp;Humidity;BMP_temperature;BMP_pressure;BME280_temperature;BME280_humidity;BME280_pressure;Samples;Min_cycle;Max_cycle;Signal;HPM_P1;HPM_P2
2021/12/08 00:02:11;;;;;;;4.97;3.25;;;;;;;2.00;100.00;99210.97;5034129;28;20101;-74
2021/12/08 00:04:37;;;;;;;6.93;3.78;;;;;;;1.92;100.00;99198.75;5034321;28;20033;-78
2021/12/08 00:07:05;;;;;;;5.75;3.97;;;;;;;1.79;100.00;99158.19;5033048;28;20049;-79
2021/12/08 00:09:47;;;;;;;6.75;3.85;;;;;;;1.93;100.00;99185.22;5031734;28;20037;-78
2021/12/08 00:14:58;;;;;;;5.18;3.67;;;;;;;2.18;100.00;99239.94;5032962;28;20045;-79
2021/12/08 00:17:24;;;;;;;4.13;3.17;;;;;;;2.15;100.00;99243.97;5033118;28;20104;-81
2021/12/08 00:19:50;;;;;;;5.13;3.63;;;;;;;2.15;100.00;99254.16;5033040;28;20150;-78
2021/12/08 00:22:16;;;;;;;4.18;2.97;;;;;;;2.26;100.00;99247.94;5033702;28;20033;-79
2021/12/08 00:24:43;;;;;;;6.00;3.45;;;;;;;2.21;100.00;99257.03;5033753;28;20494;-76
2021/12/08 00:27:08;;;;;;;3.03;1.92;;;;;;;2.05;100.00;99261.31;5033512;28;20029;-77
2021/12/08 00:29:34;;;;;;;4.68;3.53;;;;;;;1.94;100.00;99211.53;5033535;28;20029;-75
2021/12/08 00:31:59;;;;;;;3.65;3.05;;;;;;;2.06;100.00;99262.22;5033136;28;20163;-84
2021/12/08 00:34:25;;;;;;;3.17;2.53;;;;;;;2.02;100.00;99256.09;5033087;28;20091;-78
2021/12/08 00:36:55;;;;;;;4.90;3.13;;;;;;;1.94;100.00;99260.78;5032718;28;20037;-78
2021/12/08 00:39:21;;;;;;;4.13;2.90;;;;;;;1.94;100.00;99252.25;5033176;28;20034;-76
2021/12/08 00:41:46;;;;;;;4.60;2.78;;;;;;;2.02;100.00;99261.19;5031953;28;20033;-75
2021/12/08 00:44:12;;;;;;;5.60;3.43;;;;;;;2.06;100.00;99277.50;5032809;28;20033;-78
2021/12/08 00:46:37;;;;;;;5.32;3.28;;;;;;;2.00;100.00;99280.56;5032681;28;20559;-76
2021/12/08 00:49:07;;;;;;;4.70;3.25;;;;;;;1.97;100.00;99289.72;5032710;28;20033;-77
2021/12/08 00:51:32;;;;;;;4.75;3.13;;;;;;;1.79;100.00;99262.50;5033018;28;20029;-76
2021/12/08 00:53:58;;;;;;;2.57;1.80;;;;;;;1.75;100.00;99268.25;5032041;28;20507;-76
2021/12/08 00:56:24;;;;;;;3.67;2.35;;;;;;;1.87;100.00;99278.19;5030061;28;20022;-75
2021/12/08 00:58:50;;;;;;;5.32;3.28;;;;;;;1.95;100.00;99284.56;5032337;28;20450;-77
2021/12/08 01:01:16;;;;;;;4.47;2.90;;;;;;;1.96;100.00;99276.13;5032703;28;20025;-80
2021/12/08 01:03:42;;;;;;;4.40;3.40;;;;;;;1.97;100.00;99269.34;5032884;28;20037;-77
2021/12/08 01:06:07;;;;;;;4.13;3.30;;;;;;;1.75;100.00;99241.13;5032979;28;20383;-77
2021/12/08 01:08:33;;;;;;;4.45;3.35;;;;;;;2.03;100.00;99292.59;5032840;28;20487;-75
2021/12/08 01:11:10;;;;;;;4.07;2.93;;;;;;;1.99;100.00;99299.19;5012300;28;20029;-76
2021/12/08 01:13:36;;;;;;;4.40;3.53;;;;;;;1.55;100.00;99234.13;5032263;28;20464;-79
2021/12/08 01:16:02;;;;;;;4.47;3.05;;;;;;;1.94;100.00;99298.97;5031928;28;20040;-77
2021/12/08 01:18:30;;;;;;;4.90;3.42;;;;;;;1.94;100.00;99295.53;5032534;28;20029;-76
2021/12/08 01:20:57;;;;;;;3.30;2.60;;;;;;;1.95;100.00;99307.47;5031691;28;20061;-75
2021/12/08 01:23:24;;;;;;;5.13;3.57;;;;;;;1.96;100.00;99300.69;5031905;28;20112;-75
2021/12/08 01:25:50;;;;;;;3.88;2.72;;;;;;;1.82;100.00;99300.88;5013565;28;20041;-77
2021/12/08 01:28:19;;;;;;;3.67;2.60;;;;;;;1.36;100.00;99240.78;5166956;22;20009;-75
2021/12/08 01:30:45;;;;;;;4.43;3.33;;;;;;;1.77;100.00;99297.22;5032967;28;20569;-79
2021/12/08 01:33:10;;;;;;;4.00;2.75;;;;;;;1.83;100.00;99322.94;5032964;28;20038;-75
2021/12/08 01:35:36;;;;;;;5.50;3.47;;;;;;;1.80;100.00;99307.53;5030812;28;20048;-77
2021/12/08 01:38:02;;;;;;;4.77;3.53;;;;;;;1.77;100.00;99313.34;5021838;28;20029;-77
2021/12/08 01:40:28;;;;;;;3.85;2.65;;;;;;;1.81;100.00;99321.13;5021208;28;20472;-77
2021/12/08 01:42:57;;;;;;;5.70;3.53;;;;;;;1.94;100.00;99326.06;5030092;28;20059;-77
2021/12/08 01:48:11;;;;;;;4.68;3.58;;;;;;;1.84;100.00;99314.53;5031648;28;20251;-76
2021/12/08 01:50:38;;;;;;;6.32;3.60;;;;;;;1.90;100.00;99324.16;5031447;28;20030;-75
2021/12/08 01:53:05;;;;;;;4.72;3.25;;;;;;;1.86;100.00;99324.81;5031604;28;20033;-72
2021/12/08 01:55:31;;;;;;;5.65;3.90;;;;;;;1.92;100.00;99323.44;5031453;28;20032;-72
2021/12/08 01:57:57;;;;;;;4.82;3.50;;;;;;;1.86;100.00;99323.13;5031709;28;20407;-72
2021/12/08 02:00:36;;;;;;;5.25;3.95;;;;;;;1.76;100.00;99286.13;5031162;28;20033;-75
2021/12/08 02:03:01;;;;;;;5.28;3.50;;;;;;;1.98;100.00;99330.56;5031312;28;20506;-74
2021/12/08 02:05:27;;;;;;;5.38;3.45;;;;;;;1.81;100.00;99321.13;5031511;28;20038;-73
2021/12/08 02:07:53;;;;;;;4.07;2.90;;;;;;;1.63;100.00;99304.06;5028700;28;20076;-72
2021/12/08 02:10:19;;;;;;;4.30;3.03;;;;;;;1.83;100.00;99343.31;5031144;28;20550;-73
2021/12/08 02:12:46;;;;;;;2.70;2.08;;;;;;;1.61;100.00;99316.72;5031255;28;20468;-75
2021/12/08 02:15:15;;;;;;;4.18;3.08;;;;;;;1.85;100.00;99351.03;5030770;28;20058;-74
2021/12/08 02:17:41;;;;;;;4.93;3.38;;;;;;;1.81;100.00;99344.03;5030568;28;20455;-76
2021/12/08 02:20:10;;;;;;;5.13;3.57;;;;;;;1.58;100.00;99308.94;5030964;28;21790;-72
2021/12/08 02:22:37;;;;;;;4.35;3.28;;;;;;;1.87;100.00;99345.25;5031278;28;20022;-73
2021/12/08 02:25:05;;;;;;;5.70;3.90;;;;;;;1.94;100.00;99343.88;5031129;28;20029;-72
2021/12/08 02:27:34;;;;;;;3.73;2.73;;;;;;;1.78;100.00;99337.09;5030789;28;20048;-73
2021/12/08 02:30:14;;;;;;;6.50;3.30;;;;;;;1.79;100.00;99336.31;5030575;28;20041;-72
2021/12/08 02:49:38;;;;;;;3.93;2.77;;;;;;;1.68;100.00;99357.75;5129077;22;20065;-72
2021/12/08 02:52:05;;;;;;;4.97;3.07;;;;;;;1.81;100.00;99362.72;4979914;28;20179;-73
2021/12/08 02:54:42;;;;;;;3.60;2.80;;;;;;;1.63;100.00;99343.91;5031320;28;20018;-75
2021/12/08 02:57:09;;;;;;;4.50;3.13;;;;;;;1.86;100.00;99368.06;5028275;28;20518;-74
2021/12/08 02:59:36;;;;;;;4.43;3.10;;;;;;;1.82;100.00;99376.31;5030949;28;20028;-74
2021/12/08 03:02:02;;;;;;;4.50;3.30;;;;;;;1.90;100.00;99377.63;5031031;28;20021;-73
2021/12/08 03:04:28;;;;;;;5.73;3.40;;;;;;;1.84;100.00;99374.75;5028162;28;20018;-73
2021/12/08 03:06:53;;;;;;;4.53;3.40;;;;;;;1.72;100.00;99365.66;5031168;28;20021;-74
2021/12/08 03:09:19;;;;;;;4.78;3.33;;;;;;;1.82;100.00;99396.66;5031224;28;20030;-76
2021/12/08 03:11:48;;;;;;;3.88;2.65;;;;;;;1.66;100.00;99370.41;5031361;28;20030;-73
2021/12/08 03:14:15;;;;;;;2.67;2.25;;;;;;;1.73;100.00;99395.41;5031117;28;20025;-74
2021/12/08 03:16:45;;;;;;;5.90;3.60;;;;;;;1.52;100.00;99356.94;5030922;28;20037;-73
2021/12/08 03:19:11;;;;;;;5.50;3.55;;;;;;;1.81;100.00;99394.91;5030228;28;20140;-75
2021/12/08 03:21:37;;;;;;;4.83;3.03;;;;;;;1.72;100.00;99396.19;5034818;28;20026;-76
2021/12/08 03:24:20;;;;;;;5.23;3.37;;;;;;;1.72;100.00;99408.91;5036934;28;20022;-76
2021/12/08 03:27:05;;;;;;;5.10;3.37;;;;;;;1.81;100.00;99400.00;5055391;28;20461;-75
2021/12/08 03:29:48;;;;;;;3.80;2.77;;;;;;;1.72;100.00;99398.72;5055338;28;20056;-76
2021/12/08 03:32:17;;;;;;;5.10;3.67;;;;;;;1.75;100.00;99398.03;5055088;28;20029;-78
2021/12/08 03:34:52;;;;;;;4.22;3.20;;;;;;;1.78;100.00;99414.34;5055059;28;20028;-77
2021/12/08 03:37:25;;;;;;;3.63;2.37;;;;;;;1.73;100.00;99417.41;5054958;28;20056;-78
2021/12/08 03:39:51;;;;;;;4.97;3.53;;;;;;;1.76;100.00;99417.59;5054974;28;20119;-78
2021/12/08 03:42:20;;;;;;;3.67;2.53;;;;;;;1.76;100.00;99418.44;5055130;28;20026;-77
2021/12/08 03:44:47;;;;;;;4.60;3.17;;;;;;;1.76;100.00;99438.81;5055122;28;20048;-77
2021/12/08 03:47:17;;;;;;;5.13;3.40;;;;;;;1.76;100.00;99428.63;5054835;28;20033;-77
2021/12/08 03:49:45;;;;;;;7.28;4.18;;;;;;;1.78;100.00;99437.25;5055064;28;20049;-77
2021/12/08 03:52:11;;;;;;;3.45;2.80;;;;;;;1.76;100.00;99423.53;5054953;28;20113;-76
2021/12/08 03:54:36;;;;;;;5.60;3.93;;;;;;;1.86;100.00;99444.44;5054809;28;20048;-78
2021/12/08 03:57:03;;;;;;;4.87;2.93;;;;;;;1.87;100.00;99447.03;5054747;28;20021;-77
2021/12/08 03:59:32;;;;;;;4.83;3.00;;;;;;;1.79;100.00;99458.47;5054751;28;20047;-76
2021/12/08 04:01:58;;;;;;;3.92;2.80;;;;;;;1.87;100.00;99456.34;5054490;28;20060;-76
2021/12/08 04:04:28;;;;;;;4.53;3.00;;;;;;;1.77;100.00;99440.56;5054852;28;20064;-78
2021/12/08 04:06:57;;;;;;;3.60;2.80;;;;;;;1.82;100.00;99451.00;5054778;28;20029;-76
2021/12/08 04:09:32;;;;;;;4.05;2.45;;;;;;;1.69;100.00;99441.78;5054507;28;20462;-76
2021/12/08 04:12:00;;;;;;;4.93;3.37;;;;;;;1.74;100.00;99432.75;5054449;28;20047;-77
2021/12/08 04:14:32;;;;;;;4.90;3.13;;;;;;;1.60;100.00;99421.81;5054189;28;20032;-80
2021/12/08 04:17:17;;;;;;;4.73;3.80;;;;;;;1.87;100.00;99466.50;5036512;28;20040;-77
2021/12/08 04:19:45;;;;;;;4.63;3.30;;;;;;;1.78;100.00;99449.06;5054114;28;20037;-77
2021/12/08 04:22:23;;;;;;;3.47;2.83;;;;;;;1.89;100.00;99496.34;5054272;28;20036;-78
2021/12/08 04:24:50;;;;;;;4.40;3.23;;;;;;;1.83;100.00;99488.38;5019100;28;20491;-80
2021/12/08 04:27:24;;;;;;;6.57;3.53;;;;;;;1.75;100.00;99471.81;5054551;28;20036;-76
2021/12/08 04:29:50;;;;;;;4.53;3.20;;;;;;;1.92;100.00;99495.66;5035650;28;20032;-77
2021/12/08 04:32:17;;;;;;;3.45;2.20;;;;;;;1.69;100.00;99461.28;5053412;28;20040;-81
2021/12/08 04:34:45;;;;;;;4.83;3.20;;;;;;;1.93;100.00;99502.47;5054144;28;20032;-80
2021/12/08 04:37:22;;;;;;;3.30;2.25;;;;;;;1.84;100.00;99497.75;5053892;28;20509;-77
2021/12/08 04:40:13;;;;;;;4.77;3.13;;;;;;;1.87;100.00;99497.06;5053908;28;20040;-79
2021/12/08 04:46:03;;;;;;;3.60;2.50;;;;;;;1.93;100.00;99517.75;4992376;28;20142;-77
2021/12/08 04:54:04;;;;;;;4.13;2.60;;;;;;;1.84;100.00;99532.53;4977969;28;20042;-80
2021/12/08 05:02:22;;;;;;;4.03;3.03;;;;;;;1.91;100.00;99542.28;4991206;28;20178;-79
2021/12/08 05:07:46;;;;;;;4.73;3.13;;;;;;;1.92;100.00;99536.41;4980645;28;20485;-79
2021/12/08 05:10:16;;;;;;;3.97;2.73;;;;;;;1.97;100.00;99554.44;4981825;28;20424;-78
2021/12/08 05:12:44;;;;;;;4.63;2.97;;;;;;;1.97;100.00;99560.44;4980923;28;20551;-81
2021/12/08 05:15:16;;;;;;;4.60;2.83;;;;;;;1.96;100.00;99566.31;4980001;28;20126;-79
2021/12/08 05:17:50;;;;;;;5.20;2.93;;;;;;;1.64;100.00;99516.13;4977136;28;20515;-79
2021/12/08 05:21:04;;;;;;;4.47;2.70;;;;;;;1.97;100.00;99570.63;4969678;28;20031;-79
2021/12/08 05:23:43;;;;;;;5.23;3.40;;;;;;;2.07;100.00;99575.44;4931529;29;20047;-80
2021/12/08 05:26:17;;;;;;;6.95;3.20;;;;;;;1.98;100.00;99561.28;4917263;29;20462;-79
2021/12/08 05:28:47;;;;;;;4.25;2.63;;;;;;;2.00;100.00;99575.00;4948637;29;20097;-82
2021/12/08 05:31:17;;;;;;;5.40;3.25;;;;;;;2.02;100.00;99586.13;4951675;28;20038;-81
2021/12/08 05:33:45;;;;;;;4.80;3.03;;;;;;;1.97;100.00;99588.44;4952111;28;20046;-82
2021/12/08 05:36:12;;;;;;;4.57;2.15;;;;;;;1.96;100.00;99584.13;4936183;29;20043;-80
2021/12/08 05:38:39;;;;;;;4.10;2.80;;;;;;;1.99;100.00;99593.59;4952021;28;20058;-76
2021/12/08 05:41:11;;;;;;;3.90;2.90;;;;;;;2.03;100.00;99596.44;4935370;28;20058;-79
2021/12/08 05:43:37;;;;;;;3.13;2.40;;;;;;;1.82;100.00;99570.63;4951947;28;20031;-80
2021/12/08 05:46:03;;;;;;;4.15;2.47;;;;;;;1.80;100.00;99562.00;4947333;28;20090;-80
2021/12/08 05:48:31;;;;;;;4.80;2.93;;;;;;;2.07;100.00;99605.97;4935467;28;20450;-80
2021/12/08 05:51:03;;;;;;;4.30;3.10;;;;;;;2.19;100.00;99612.56;4946957;28;20175;-81
2021/12/08 05:53:31;;;;;;;5.65;3.25;;;;;;;2.10;100.00;99608.69;4971269;28;20042;-80
2021/12/08 05:55:57;;;;;;;4.30;2.90;;;;;;;1.95;100.00;99605.28;4971075;28;20126;-81
2021/12/08 05:58:25;;;;;;;3.37;2.20;;;;;;;1.78;100.00;99592.47;4988738;28;20048;-80
2021/12/08 06:00:56;;;;;;;4.38;3.03;;;;;;;2.10;100.00;99623.09;5039827;28;20057;-80
2021/12/08 06:03:22;;;;;;;4.97;3.13;;;;;;;1.89;100.00;99594.75;4997821;28;20555;-80
2021/12/08 06:05:49;;;;;;;5.13;2.70;;;;;;;2.16;100.00;99637.84;5030836;28;20495;-81
2021/12/08 06:08:16;;;;;;;5.93;2.97;;;;;;;2.03;100.00;99626.97;5032090;28;20523;-80
2021/12/08 06:10:42;;;;;;;4.37;2.70;;;;;;;2.02;100.00;99630.31;5032086;28;20026;-80
2021/12/08 06:13:12;;;;;;;4.45;2.90;;;;;;;2.17;100.00;99634.50;5037174;28;20090;-80
2021/12/08 06:15:39;;;;;;;5.20;3.30;;;;;;;2.19;100.00;99653.28;5051849;28;20029;-80
2021/12/08 06:18:05;;;;;;;4.07;2.88;;;;;;;2.03;100.00;99632.06;5051537;28;20056;-80
2021/12/08 06:20:31;;;;;;;6.22;3.03;;;;;;;2.09;100.00;99645.16;5051666;28;20068;-80
2021/12/08 06:22:58;;;;;;;4.82;3.17;;;;;;;1.93;100.00;99610.28;5051848;28;20045;-80
2021/12/08 06:25:25;;;;;;;4.10;2.60;;;;;;;2.19;100.00;99663.47;5051316;28;20464;-81
2021/12/08 06:27:51;;;;;;;6.72;4.07;;;;;;;2.32;100.00;99675.25;5051609;28;20033;-79
2021/12/08 06:30:20;;;;;;;4.90;2.97;;;;;;;2.10;100.00;99629.06;5033926;28;20402;-80
2021/12/08 06:32:47;;;;;;;5.97;3.75;;;;;;;2.37;100.00;99674.72;5051621;28;20060;-80
2021/12/08 06:35:18;;;;;;;6.97;4.00;;;;;;;2.32;100.00;99663.41;5051332;28;20033;-80
2021/12/08 06:37:44;;;;;;;6.50;3.88;;;;;;;2.43;100.00;99680.16;5051546;28;20028;-80
2021/12/08 06:40:29;;;;;;;10.48;5.20;;;;;;;2.33;100.00;99677.91;5051080;28;20580;-80
2021/12/08 06:42:57;;;;;;;5.65;3.60;;;;;;;2.43;100.00;99687.81;5033629;28;20106;-80
2021/12/08 06:45:37;;;;;;;7.20;4.53;;;;;;;2.54;100.00;99697.72;5051304;28;20029;-80
2021/12/08 06:48:06;;;;;;;6.55;4.50;;;;;;;2.52;100.00;99682.34;5050658;28;20025;-81
2021/12/08 06:50:35;;;;;;;;;;;;;;;2.51;100.00;99707.75;5045074;28;20042;-80
2021/12/08 06:53:00;;;;;;;6.35;4.25;;;;;;;2.49;100.00;99702.53;5039111;28;19916;-80
2021/12/08 06:55:30;;;;;;;8.60;5.30;;;;;;;2.38;100.00;99655.22;5032983;28;20056;-80
2021/12/08 06:58:04;;;;;;;5.95;4.35;;;;;;;2.67;100.00;99712.06;5051079;28;20036;-80
2021/12/08 07:01:00;;;;;;;8.15;5.05;;;;;;;2.67;100.00;99725.66;5051045;28;20064;-80
2021/12/08 07:03:46;;;;;;;8.48;4.82;;;;;;;2.67;100.00;99718.00;5051556;28;20032;-81
2021/12/08 07:06:44;;;;;;;7.57;5.03;;;;;;;2.79;100.00;99733.13;5051336;28;20021;-81
2021/12/08 07:09:20;;;;;;;7.22;4.82;;;;;;;2.75;100.00;99726.09;5051226;28;20493;-81
2021/12/08 07:11:47;;;;;;;7.07;4.93;;;;;;;2.68;100.00;99732.53;5051308;28;20029;-81
2021/12/08 07:14:15;;;;;;;7.50;5.38;;;;;;;2.82;100.00;99737.53;5051213;28;20033;-80
2021/12/08 07:16:46;;;;;;;7.50;4.70;;;;;;;2.84;100.00;99741.00;5051225;28;20029;-80
2021/12/08 07:19:51;;;;;;;8.90;6.00;;;;;;;2.79;100.00;99729.69;5050918;28;20021;-80
2021/12/08 07:22:26;;;;;;;8.75;5.80;;;;;;;2.61;100.00;99697.28;4953836;28;20046;-80
2021/12/08 07:24:57;;;;;;;10.63;6.68;;;;;;;2.64;100.00;99694.03;4970111;28;20042;-80
2021/12/08 07:27:29;;;;;;;17.33;9.45;;;;;;;2.90;100.00;99744.81;4970127;28;20485;-80
2021/12/08 07:29:59;;;;;;;11.00;6.88;;;;;;;2.67;100.00;99702.72;4970083;28;20053;-80
2021/12/08 07:32:30;;;;;;;14.10;9.30;;;;;;;2.87;100.00;99736.09;4970016;28;20047;-80
2021/12/08 07:34:58;;;;;;;10.48;6.65;;;;;;;2.99;100.00;99728.25;4970050;28;20038;-81
2021/12/08 07:37:31;;;;;;;11.43;7.47;;;;;;;2.98;100.00;99752.88;4969711;28;20038;-80
2021/12/08 07:40:03;;;;;;;11.20;7.13;;;;;;;2.85;100.00;99727.47;4969899;28;20069;-81
2021/12/08 07:42:34;;;;;;;19.30;10.18;;;;;;;2.68;100.00;99712.13;4970038;28;20125;-81
2021/12/08 07:45:04;;;;;;;11.07;7.00;;;;;;;2.56;100.00;99684.28;4969758;28;20039;-81
2021/12/08 07:47:31;;;;;;;10.55;6.78;;;;;;;2.79;100.00;99719.50;4969790;28;20086;-79
2021/12/08 07:50:14;;;;;;;9.20;6.10;;;;;;;3.00;100.00;99747.84;4969469;28;20573;-81
2021/12/08 07:52:43;;;;;;;11.68;7.32;;;;;;;3.03;100.00;99737.84;4969738;28;20125;-81
2021/12/08 07:55:15;;;;;;;11.77;7.00;;;;;;;3.09;100.00;99753.47;4969433;28;20039;-81
2021/12/08 07:57:43;;;;;;;11.57;7.68;;;;;;;3.02;100.00;99746.28;4970189;28;20042;-80
2021/12/08 08:00:23;;;;;;;17.90;11.93;;;;;;;3.12;100.00;99774.03;5030836;28;20025;-81
2021/12/08 08:02:51;;;;;;;8.43;5.40;;;;;;;3.03;100.00;99746.34;5029652;28;20641;-81
2021/12/08 08:05:19;;;;;;;12.82;8.80;;;;;;;3.26;100.00;99768.81;5032168;28;20057;-80
2021/12/08 08:07:47;;;;;;;14.15;9.07;;;;;;;3.35;100.00;99759.09;5033901;28;20479;-81
2021/12/08 08:10:15;;;;;;;14.35;10.35;;;;;;;3.32;100.00;99776.81;5034375;28;20025;-81
2021/12/08 08:12:46;;;;;;;14.90;10.05;;;;;;;3.12;100.00;99737.47;5034105;28;20452;-81
2021/12/08 08:15:20;;;;;;;14.02;8.95;;;;;;;3.15;100.00;99730.81;5034278;28;20029;-80
2021/12/08 08:17:47;;;;;;;12.65;8.43;;;;;;;3.38;100.00;99765.25;5034327;28;20037;-80
2021/12/08 08:20:29;;;;;;;13.65;8.23;;;;;;;3.39;100.00;99782.31;5033652;28;20021;-80
2021/12/08 08:22:55;;;;;;;13.85;8.48;;;;;;;3.37;100.00;99783.03;5033539;28;20163;-80
2021/12/08 08:25:25;;;;;;;15.75;11.43;;;;;;;3.39;100.00;99795.09;5034080;28;20033;-80
2021/12/08 08:27:51;;;;;;;12.23;8.45;;;;;;;3.30;100.00;99776.72;5023339;28;20124;-80
2021/12/08 08:30:24;;;;;;;14.38;9.10;;;;;;;2.93;100.00;99713.50;5014008;28;20109;-80
2021/12/08 08:32:52;;;;;;;17.38;11.23;;;;;;;3.47;100.00;99795.50;5014065;28;20026;-80
2021/12/08 08:35:29;;;;;;;9.85;6.00;;;;;;;3.47;100.00;99799.72;5014233;28;20038;-80
2021/12/08 08:37:57;;;;;;;15.50;9.90;;;;;;;3.57;100.00;99796.88;5013739;28;20484;-80
2021/12/08 08:40:30;;;;;;;14.38;9.00;;;;;;;3.33;100.00;99761.59;5012501;28;20038;-80
2021/12/08 08:42:58;;;;;;;16.95;9.50;;;;;;;3.62;100.00;99790.34;5026037;28;20033;-79
2021/12/08 08:45:45;;;;;;;15.60;10.15;;;;;;;3.71;100.00;99795.06;5031769;28;20559;-80
2021/12/08 08:48:15;;;;;;;16.13;11.02;;;;;;;3.75;100.00;99793.56;5013614;28;20030;-82
2021/12/08 08:50:50;;;;;;;13.70;8.95;;;;;;;3.67;100.00;99772.72;5031654;28;20115;-81
2021/12/08 08:53:18;;;;;;;16.02;10.00;;;;;;;3.80;100.00;99782.81;5033422;28;20029;-81
2021/12/08 08:55:51;;;;;;;16.00;9.32;;;;;;;3.84;100.00;99783.84;5033079;28;20492;-81
2021/12/08 08:58:21;;;;;;;14.57;10.60;;;;;;;3.94;100.00;99780.06;5033373;28;20033;-81
2021/12/08 09:01:02;;;;;;;16.70;11.07;;;;;;;3.88;100.00;99739.78;5033284;28;20037;-82
2021/12/08 09:03:34;;;;;;;18.95;11.57;;;;;;;4.15;100.00;99772.66;5015608;28;20480;-80
2021/12/08 09:06:16;;;;;;;34.88;20.42;;;;;;;4.09;100.00;99782.53;5032289;28;20456;-80
2021/12/08 09:08:42;;;;;;;14.88;10.02;;;;;;;4.04;100.00;99770.41;5032840;28;20033;-80
2021/12/08 09:11:15;;;;;;;15.38;9.73;;;;;;;4.04;100.00;99772.97;5033045;28;20479;-80
2021/12/08 09:14:03;;;;;;;16.08;10.02;;;;;;;4.18;100.00;99783.03;5033032;28;20029;-81
2021/12/08 09:16:35;;;;;;;15.93;10.32;;;;;;;4.31;100.00;99789.63;5032466;28;20029;-82
2021/12/08 09:19:09;;;;;;;14.50;9.73;;;;;;;4.29;100.00;99776.78;5015335;28;20394;-80
2021/12/08 09:21:47;;;;;;;15.60;9.65;;;;;;;4.37;100.00;99789.94;5015109;28;20029;-81
2021/12/08 09:24:32;;;;;;;12.30;8.15;;;;;;;4.27;100.00;99780.94;5033160;28;20446;-81
2021/12/08 09:26:58;;;;;;;16.65;10.90;;;;;;;4.33;100.00;99750.59;5032890;28;20018;-81
2021/12/08 09:29:30;;;;;;;14.05;10.18;;;;;;;4.24;100.00;99716.91;5015319;28;20021;-81
2021/12/08 09:32:08;;;;;;;13.73;9.25;;;;;;;4.40;100.00;99751.78;5032711;28;20022;-81
2021/12/08 09:34:45;;;;;;;14.45;8.88;;;;;;;4.33;100.00;99744.59;5032596;28;20033;-81
2021/12/08 09:37:19;;;;;;;16.05;10.80;;;;;;;4.49;100.00;99753.94;5032155;28;20399;-81
2021/12/08 09:40:02;;;;;;;14.63;9.63;;;;;;;4.74;100.00;99768.78;5032574;28;20029;-80
2021/12/08 09:42:50;;;;;;;16.38;9.18;;;;;;;4.59;100.00;99770.59;5032547;28;20032;-81
2021/12/08 09:45:31;;;;;;;15.57;11.30;;;;;;;4.56;100.00;99753.44;4990596;28;20034;-80
2021/12/08 09:47:56;;;;;;;15.05;10.18;;;;;;;4.62;100.00;99751.19;4990600;28;20078;-81
2021/12/08 09:50:22;;;;;;;16.65;10.27;;;;;;;4.56;100.00;99761.09;4990266;28;20050;-80
2021/12/08 09:52:48;;;;;;;14.73;7.45;;;;;;;4.47;100.00;99756.38;4990718;28;20031;-81
2021/12/08 09:55:17;;;;;;;13.82;8.95;;;;;;;4.65;100.00;99770.91;4990434;28;20058;-81
2021/12/08 09:57:44;;;;;;;15.47;10.37;;;;;;;4.63;100.00;99757.16;4974023;28;20113;-80
2021/12/08 10:00:17;;;;;;;17.15;9.40;;;;;;;4.40;100.00;99754.34;4990307;28;20305;-81
2021/12/08 10:02:43;;;;;;;14.63;8.95;;;;;;;4.59;100.00;99765.50;4974121;28;20499;-80
2021/12/08 10:05:13;;;;;;;12.98;8.25;;;;;;;4.67;100.00;99772.72;4990137;28;20034;-81
2021/12/08 10:07:40;;;;;;;13.85;8.32;;;;;;;4.59;100.00;99776.56;4990353;28;20035;-81
2021/12/08 10:10:08;;;;;;;15.52;10.50;;;;;;;4.70;100.00;99772.00;4990363;28;20049;-81
2021/12/08 10:12:36;;;;;;;16.20;10.38;;;;;;;4.78;100.00;99774.94;4989982;28;20535;-81
2021/12/08 10:15:05;;;;;;;14.07;9.65;;;;;;;4.64;100.00;99764.91;4991858;28;20030;-81
2021/12/08 10:17:30;;;;;;;16.67;10.80;;;;;;;4.71;100.00;99768.66;5031630;28;20029;-81
2021/12/08 10:20:07;;;;;;;15.00;10.25;;;;;;;4.75;100.00;99770.53;5031654;28;20033;-81
2021/12/08 10:22:33;;;;;;;18.23;10.93;;;;;;;4.65;100.00;99764.09;5014031;28;20034;-81
2021/12/08 10:25:07;;;;;;;22.30;16.05;;;;;;;4.86;100.00;99777.06;5029836;28;20032;-80
2021/12/08 10:28:11;;;;;;;17.10;11.60;;;;;;;4.87;100.00;99777.91;5031406;28;20029;-81
2021/12/08 10:30:47;;;;;;;17.88;11.18;;;;;;;4.78;100.00;99744.25;5011923;28;20459;-80
2021/12/08 10:33:38;;;;;;;16.05;10.50;;;;;;;4.72;100.00;99736.28;5048175;28;20036;-81
2021/12/08 10:36:19;;;;;;;14.80;9.52;;;;;;;4.89;100.00;99765.22;5033748;28;20458;-80
2021/12/08 10:38:44;;;;;;;14.57;9.00;;;;;;;4.92;100.00;99768.81;5033822;28;20040;-80
2021/12/08 10:41:10;;;;;;;16.15;10.65;;;;;;;4.96;100.00;99774.94;5033616;28;20037;-80
2021/12/08 10:43:36;;;;;;;17.10;10.68;;;;;;;4.92;100.00;99750.00;5051329;28;20060;-81
2021/12/08 10:46:10;;;;;;;15.20;9.25;;;;;;;5.08;100.00;99772.09;5033491;28;20035;-82
2021/12/08 10:48:43;;;;;;;15.93;9.82;;;;;;;4.86;100.00;99737.84;5045653;28;20025;-78
2021/12/08 10:54:27;;;;;;;15.18;11.32;;;;;;;5.12;100.00;99782.56;4985979;28;20045;-80
2021/12/08 10:56:57;;;;;;;15.60;10.55;;;;;;;5.23;100.00;99777.06;4974441;28;20444;-81
2021/12/08 10:59:49;;;;;;;14.55;9.55;;;;;;;5.16;100.00;99783.59;4991541;28;20503;-81
2021/12/08 11:02:42;;;;;;;17.00;10.77;;;;;;;5.21;100.00;99779.56;4990148;28;20552;-80
2021/12/08 11:05:32;;;;;;;17.73;11.85;;;;;;;5.26;100.00;99787.44;4989367;28;20085;-81
2021/12/08 11:08:16;;;;;;;17.83;12.30;;;;;;;5.43;100.00;99784.00;4992040;28;20054;-81
2021/12/08 11:10:55;;;;;;;20.02;12.50;;;;;;;5.25;100.00;99758.41;4991871;28;20042;-79
2021/12/08 11:13:24;;;;;;;17.57;11.40;;;;;;;5.51;100.00;99784.34;4989719;28;20440;-82
2021/12/08 11:16:03;;;;;;;17.15;11.80;;;;;;;5.55;100.00;99782.81;4991675;28;20041;-80
2021/12/08 11:18:30;;;;;;;17.80;11.95;;;;;;;5.61;100.00;99778.84;4974498;28;20030;-82
2021/12/08 11:21:00;;;;;;;17.75;10.40;;;;;;;5.65;100.00;99778.16;4988868;28;20117;-80
2021/12/08 11:23:40;;;;;;;14.65;9.32;;;;;;;5.52;100.00;99745.16;4986369;28;20125;-82
2021/12/08 11:26:29;;;;;;;13.43;8.75;;;;;;;5.69;98.87;99770.63;4991769;28;20412;-81
2021/12/08 11:29:10;;;;;;;15.13;8.10;;;;;;;5.89;99.68;99780.06;4972252;28;20416;-82
2021/12/08 11:31:43;;;;;;;12.35;7.50;;;;;;;5.65;95.51;99719.25;4972186;28;20106;-78
2021/12/08 11:34:30;;;;;;;13.68;8.25;;;;;;;5.88;98.76;99762.97;4986799;28;20528;-81
2021/12/08 11:36:58;;;;;;;15.55;9.82;;;;;;;5.79;100.00;99755.72;4991646;28;20027;-82
2021/12/08 11:39:27;;;;;;;18.33;10.73;;;;;;;6.05;100.00;99779.09;4974403;28;20065;-81
2021/12/08 11:41:56;;;;;;;14.65;9.38;;;;;;;6.01;100.00;99755.81;4977999;28;20032;-81
2021/12/08 11:44:25;;;;;;;17.38;11.02;;;;;;;5.87;100.00;99740.72;4995353;28;20044;-81
2021/12/08 11:46:58;;;;;;;14.60;9.63;;;;;;;5.99;100.00;99783.97;4978060;28;20449;-84
2021/12/08 11:49:25;;;;;;;15.38;9.77;;;;;;;5.76;100.00;99781.22;4995291;28;20058;-80
2021/12/08 11:51:52;;;;;;;15.82;11.45;;;;;;;5.83;100.00;99796.06;4995676;28;20477;-79
2021/12/08 11:54:40;;;;;;;15.70;11.10;;;;;;;5.73;100.00;99762.28;4977828;28;20124;-81
2021/12/08 11:57:21;;;;;;;17.75;11.00;;;;;;;6.00;100.00;99793.41;4976440;28;20042;-82
2021/12/08 11:59:53;;;;;;;18.73;10.85;;;;;;;5.88;100.00;99760.41;4995124;28;20093;-81
2021/12/08 12:02:20;;;;;;;15.38;9.60;;;;;;;5.76;98.66;99749.63;4994993;28;20022;-81
2021/12/08 12:04:46;;;;;;;15.95;10.35;;;;;;;5.63;99.58;99738.81;4995346;28;20085;-82
2021/12/08 12:07:13;;;;;;;17.13;10.85;;;;;;;5.89;99.28;99767.25;4994700;28;20031;-80
2021/12/08 12:09:41;;;;;;;17.80;10.93;;;;;;;6.07;99.76;99787.75;4995113;28;20026;-84
2021/12/08 12:12:08;;;;;;;15.20;10.57;;;;;;;6.05;98.41;99784.22;4977467;28;20037;-83
2021/12/08 12:14:34;;;;;;;15.82;10.55;;;;;;;5.77;98.94;99725.72;4995116;28;20038;-81
2021/12/08 12:17:00;;;;;;;16.65;9.63;;;;;;;6.18;97.99;99780.53;4977357;28;20030;-84
2021/12/08 12:19:30;;;;;;;16.30;9.75;;;;;;;6.13;97.16;99795.69;4994718;28;20029;-81
2021/12/08 12:22:07;;;;;;;18.48;11.43;;;;;;;6.09;97.32;99801.50;4994371;28;20034;-81
2021/12/08 12:25:06;;;;;;;14.70;10.18;;;;;;;6.12;98.06;99798.19;4993891;28;20088;-81
2021/12/08 12:27:43;;;;;;;15.20;9.85;;;;;;;6.13;97.14;99795.69;5014236;28;20524;-82
2021/12/08 12:30:30;;;;;;;14.32;9.77;;;;;;;6.20;96.91;99801.97;4996647;28;20058;-80
2021/12/08 12:32:55;;;;;;;16.20;10.45;;;;;;;6.26;98.20;99793.69;5013942;28;20088;-81